Time;durP1;ratioP1;P1;durP2;ratioP2;P2;SDS_P1;SDS_P2;PMS_P1;PMS_P2;Temp;Humidity;BMP_temperature;BMP_pressure;BME280_temperature;BME280_humidity;BME280_pressure;Samples;Min_cycle;Max_cycle;Signal;HPM_P1;HPM_P2
2024/02/02 00:01:17;;;;;;;50.00;24.40;;;;;;;0.88;88.35;96236.31;106415;1276;23928;-77
2024/02/02 00:03:46;;;;;;;48.30;24.00;;;;;;;0.90;88.08;96237.56;106671;1276;25278;-77
2024/02/02 00:06:15;;;;;;;44.20;22.70;;;;;;;0.94;88.01;96239.59;106698;1264;22642;-77
2024/02/02 00:08:43;;;;;;;46.60;23.20;;;;;;;0.97;87.89;96244.69;106566;1276;22779;-77
2024/02/02 00:11:11;;;;;;;61.90;30.90;;;;;;;0.98;87.58;96239.21;106652;1276;23943;-77
2024/02/02 00:13:40;;;;;;;45.60;23.50;;;;;;;0.99;87.34;96235.08;106633;1276;22637;-77
2024/02/02 00:16:08;;;;;;;73.60;35.70;;;;;;;0.98;87.24;96231.23;106656;1276;22532;-77
2024/02/02 00:18:36;;;;;;;37.30;19.60;;;;;;;1.02;87.37;96226.65;106709;1276;25229;-77
2024/02/02 00:21:05;;;;;;;43.10;20.90;;;;;;;1.04;87.21;96226.73;106645;1276;24284;-77
2024/02/02 00:23:33;;;;;;;44.90;21.70;;;;;;;1.02;86.91;96225.45;106885;1276;22526;-77
2024/02/02 00:26:03;;;;;;;36.20;19.80;;;;;;;1.02;86.89;96229.63;106858;1276;23913;-77
2024/02/02 00:28:31;;;;;;;39.50;20.00;;;;;;;1.04;86.65;96230.73;106613;1276;25244;-77
2024/02/02 00:30:59;;;;;;;44.50;22.50;;;;;;;1.01;86.35;96231.48;106596;1276;24508;-77
2024/02/02 00:33:27;;;;;;;39.10;20.30;;;;;;;0.98;86.00;96227.92;106637;1276;26586;-77
2024/02/02 00:35:56;;;;;;;36.30;18.70;;;;;;;1.07;86.74;96225.94;106564;1276;22792;-77
2024/02/02 00:38:24;;;;;;;34.70;18.00;;;;;;;1.12;86.19;96235.44;106656;1276;22533;-77
2024/02/02 00:40:52;;;;;;;36.20;19.10;;;;;;;1.12;85.80;96230.07;106612;1276;22666;-77
2024/02/02 00:43:20;;;;;;;35.00;19.00;;;;;;;1.10;85.40;96230.34;106922;1276;22520;-76
2024/02/02 00:45:49;;;;;;;31.90;16.50;;;;;;;1.09;85.45;96227.91;106596;1276;25264;-78
2024/02/02 00:48:17;;;;;;;32.90;18.40;;;;;;;1.03;85.07;96224.61;106602;1264;23920;-76
2024/02/02 00:50:45;;;;;;;32.60;17.10;;;;;;;0.98;84.94;96220.14;106590;1276;23743;-76
2024/02/02 00:53:14;;;;;;;28.90;15.80;;;;;;;0.94;85.05;96217.08;106657;1260;22553;-77
2024/02/02 00:55:43;;;;;;;33.20;16.30;;;;;;;0.90;84.90;96216.45;106633;1273;25229;-76
2024/02/02 00:58:11;;;;;;;26.40;14.40;;;;;;;0.80;84.82;96216.70;106568;1276;25551;-76
2024/02/02 01:00:40;;;;;;;31.50;15.70;;;;;;;0.70;84.79;96215.52;106631;1276;22524;-77
2024/02/02 01:03:08;;;;;;;27.80;14.90;;;;;;;0.67;85.10;96214.40;106664;1276;24274;-76
2024/02/02 01:05:36;;;;;;;24.70;13.30;;;;;;;0.60;84.99;96210.21;106570;1276;25467;-77
2024/02/02 01:08:05;;;;;;;27.20;14.50;;;;;;;0.51;85.09;96214.98;106624;1276;22647;-76
2024/02/02 01:10:33;;;;;;;27.90;15.70;;;;;;;0.46;85.39;96211.52;106592;1276;24261;-76
2024/02/02 01:13:02;;;;;;;24.60;15.30;;;;;;;0.45;85.48;96207.50;106631;1276;24291;-76
2024/02/02 01:15:30;;;;;;;25.80;14.10;;;;;;;0.45;85.63;96204.21;106637;1276;22518;-76
2024/02/02 01:17:59;;;;;;;28.20;15.50;;;;;;;0.41;85.36;96206.20;106632;1276;22533;-77
2024/02/02 01:20:28;;;;;;;24.10;13.20;;;;;;;0.38;85.35;96205.91;106709;1276;22579;-77
2024/02/02 01:22:56;;;;;;;26.60;14.70;;;;;;;0.33;85.06;96204.22;106595;1261;22970;-77
2024/02/02 01:25:24;;;;;;;26.70;14.90;;;;;;;0.32;85.32;96198.30;106582;1276;23607;-77
2024/02/02 01:27:52;;;;;;;31.10;17.10;;;;;;;0.31;85.35;96200.67;106581;1276;25446;-77
2024/02/02 01:30:23;;;;;;;35.40;17.60;;;;;;;0.28;85.38;96196.60;106472;1276;24218;-77
2024/02/02 01:32:51;;;;;;;33.70;19.50;;;;;;;0.30;85.70;96200.29;106637;1276;24214;-77
2024/02/02 01:35:20;;;;;;;33.80;19.00;;;;;;;0.33;85.76;96201.95;106686;1276;24071;-77
2024/02/02 01:37:48;;;;;;;42.50;22.40;;;;;;;0.36;86.05;96204.30;106634;1276;22648;-77
2024/02/02 01:40:17;;;;;;;31.00;17.60;;;;;;;0.39;86.06;96203.00;106563;1276;22521;-77
2024/02/02 01:42:45;;;;;;;35.70;19.40;;;;;;;0.43;86.13;96204.02;106647;1276;22556;-77
2024/02/02 01:45:14;;;;;;;37.40;19.90;;;;;;;0.42;85.92;96204.48;106658;1276;22639;-77
2024/02/02 01:47:42;;;;;;;29.20;15.90;;;;;;;0.45;86.24;96206.14;106783;1276;25258;-77
2024/02/02 01:50:12;;;;;;;30.80;15.70;;;;;;;0.48;86.15;96204.30;106648;1276;24051;-77
2024/02/02 01:52:40;;;;;;;35.50;18.00;;;;;;;0.44;85.78;96199.87;106746;1276;24227;-77
2024/02/02 01:55:09;;;;;;;29.90;15.80;;;;;;;0.45;85.94;96202.33;106661;1276;24241;-77
2024/02/02 01:57:40;;;;;;;34.20;17.00;;;;;;;0.40;85.68;96201.14;106626;1276;24386;-77
2024/02/02 02:00:09;;;;;;;29.30;16.20;;;;;;;0.38;85.91;96195.55;106595;1276;24423;-77
2024/02/02 02:02:38;;;;;;;30.00;17.30;;;;;;;0.46;86.44;96200.62;106617;1276;22538;-77
2024/02/02 02:05:06;;;;;;;32.40;17.60;;;;;;;0.45;85.90;96204.39;106618;1276;25335;-77
2024/02/02 02:07:35;;;;;;;26.70;14.90;;;;;;;0.43;86.23;96198.13;106662;1276;25725;-77
2024/02/02 02:10:03;;;;;;;28.30;15.50;;;;;;;0.52;86.53;96194.89;106650;1276;22493;-77
2024/02/02 02:12:32;;;;;;;33.60;18.20;;;;;;;0.59;86.63;96199.80;106598;1276;23025;-77
2024/02/02 02:15:00;;;;;;;37.60;19.70;;;;;;;0.69;86.86;96196.11;106602;1276;22720;-77
2024/02/02 02:17:29;;;;;;;30.40;15.90;;;;;;;0.73;86.12;96198.45;106653;1276;22525;-77
2024/02/02 02:19:59;;;;;;;25.80;12.00;;;;;;;0.70;86.08;96201.48;106624;1276;25360;-77
2024/02/02 02:22:27;;;;;;;21.60;12.10;;;;;;;0.76;86.63;96204.98;106648;1276;22532;-77
2024/02/02 02:24:55;;;;;;;32.90;17.50;;;;;;;0.78;85.95;96205.73;106647;1276;24259;-77
2024/02/02 02:27:24;;;;;;;29.00;16.70;;;;;;;0.72;85.49;96213.85;106602;1276;22533;-77
2024/02/02 02:29:53;;;;;;;28.20;15.20;;;;;;;0.66;85.14;96208.31;106607;1276;22541;-77
2024/02/02 02:32:21;;;;;;;18.20;10.20;;;;;;;0.55;84.67;96208.84;106574;1276;24213;-77
2024/02/02 02:34:49;;;;;;;27.80;15.40;;;;;;;0.45;85.15;96201.12;106629;1276;24314;-77
2024/02/02 02:37:18;;;;;;;24.30;13.70;;;;;;;0.37;85.52;96203.63;106607;1276;22570;-77
2024/02/02 02:39:46;;;;;;;31.60;16.50;;;;;;;0.29;85.94;96210.84;106606;1276;22510;-77
2024/02/02 02:42:14;;;;;;;26.10;15.70;;;;;;;0.24;85.66;96202.88;106577;1276;22583;-77
2024/02/02 02:44:42;;;;;;;31.20;15.80;;;;;;;0.19;85.64;96206.55;106607;1276;25258;-77
2024/02/02 02:47:11;;;;;;;24.70;13.20;;;;;;;0.14;85.64;96204.31;106669;1276;22666;-77
2024/02/02 02:49:39;;;;;;;16.40;10.20;;;;;;;0.10;85.53;96211.80;106630;1276;25368;-77
2024/02/02 02:52:08;;;;;;;26.40;13.90;;;;;;;0.05;86.24;96218.23;106622;1276;22541;-77
2024/02/02 02:54:36;;;;;;;31.60;16.00;;;;;;;-0.01;86.55;96214.73;106790;1276;25262;-77
2024/02/02 02:57:04;;;;;;;29.30;15.50;;;;;;;-0.05;86.33;96210.62;106626;1252;22545;-77
2024/02/02 02:59:33;;;;;;;24.00;14.30;;;;;;;-0.06;86.31;96209.56;106628;1276;24255;-77
2024/02/02 03:02:01;;;;;;;35.90;18.20;;;;;;;-0.07;86.60;96217.33;106591;1276;23055;-77
2024/02/02 03:04:29;;;;;;;41.10;21.70;;;;;;;-0.10;87.38;96221.38;106584;1276;25290;-77
2024/02/02 03:06:57;;;;;;;46.00;22.90;;;;;;;-0.13;87.06;96218.86;106631;1276;22637;-77
2024/02/02 03:09:26;;;;;;;39.80;20.90;;;;;;;-0.13;86.92;96223.00;106556;1276;22544;-77
2024/02/02 03:11:54;;;;;;;42.70;22.10;;;;;;;-0.09;87.05;96218.99;106583;1276;24309;-77
2024/02/02 03:14:22;;;;;;;40.00;20.90;;;;;;;-0.02;87.26;96223.00;106745;1276;25267;-77
2024/02/02 03:16:51;;;;;;;37.90;20.20;;;;;;;-0.00;87.31;96226.87;106559;1276;22572;-77
2024/02/02 03:19:19;;;;;;;35.50;18.60;;;;;;;0.04;87.59;96219.93;106575;1276;22580;-77
2024/02/02 03:21:47;;;;;;;32.80;18.00;;;;;;;0.14;87.64;96220.25;106631;1276;22530;-76
2024/02/02 03:24:15;;;;;;;31.70;16.60;;;;;;;0.18;87.21;96216.38;106604;1276;25383;-77
2024/02/02 03:26:44;;;;;;;36.50;19.40;;;;;;;0.18;87.07;96213.60;106586;1276;24309;-77
2024/02/02 03:29:12;;;;;;;37.30;21.70;;;;;;;0.20;87.23;96214.02;106660;1276;22523;-77
2024/02/02 03:31:41;;;;;;;36.60;20.10;;;;;;;0.27;87.35;96218.20;106448;1276;24235;-77
2024/02/02 03:34:09;;;;;;;32.40;18.00;;;;;;;0.33;87.35;96221.86;106808;1276;22528;-77
2024/02/02 03:36:37;;;;;;;38.70;19.70;;;;;;;0.36;86.89;96219.00;106751;1276;25568;-77
2024/02/02 03:39:05;;;;;;;35.50;19.20;;;;;;;0.33;86.63;96216.67;106761;1276;24287;-77
2024/02/02 03:41:35;;;;;;;33.20;16.50;;;;;;;0.31;86.13;96216.08;106683;1276;25368;-77
2024/02/02 03:44:04;;;;;;;36.30;18.80;;;;;;;0.28;86.36;96227.94;106658;1276;25252;-76
2024/02/02 03:46:32;;;;;;;38.70;21.50;;;;;;;0.32;86.74;96234.29;106675;1276;24229;-77
2024/02/02 03:49:00;;;;;;;43.30;22.10;;;;;;;0.34;86.87;96242.67;106603;1276;22543;-77
2024/02/02 03:51:29;;;;;;;30.50;17.60;;;;;;;0.46;87.31;96246.66;106580;1276;22540;-77
2024/02/02 03:53:57;;;;;;;34.00;18.20;;;;;;;0.55;86.73;96247.63;106645;1276;22527;-77
2024/02/02 03:56:26;;;;;;;27.80;14.80;;;;;;;0.51;86.05;96250.64;106647;1276;25354;-77
2024/02/02 03:58:54;;;;;;;27.50;15.80;;;;;;;0.48;85.99;96253.29;106641;1276;24446;-77
2024/02/02 04:01:23;;;;;;;33.80;18.90;;;;;;;0.45;86.26;96259.80;106621;1276;22525;-77
2024/02/02 04:03:51;;;;;;;35.80;19.50;;;;;;;0.41;86.06;96266.60;106747;1276;25443;-77
2024/02/02 04:06:19;;;;;;;33.60;19.00;;;;;;;0.33;85.54;96263.20;106460;1276;22519;-77
2024/02/02 04:08:48;;;;;;;37.80;20.00;;;;;;;0.28;85.73;96266.51;106622;1276;22528;-77
2024/02/02 04:11:16;;;;;;;34.70;18.80;;;;;;;0.26;85.90;96273.18;106621;1276;23334;-77
2024/02/02 04:13:45;;;;;;;59.30;27.60;;;;;;;0.17;85.84;96269.45;106654;1276;23885;-77
2024/02/02 04:16:13;;;;;;;385.90;119.90;;;;;;;0.11;86.13;96269.46;106615;1276;22572;-77
2024/02/02 04:18:41;;;;;;;65.50;29.10;;;;;;;0.10;86.25;96267.00;106630;1276;23842;-77
2024/02/02 04:21:10;;;;;;;59.70;28.00;;;;;;;0.09;86.07;96266.60;106607;1276;22527;-77
2024/02/02 04:23:38;;;;;;;47.20;23.30;;;;;;;0.07;85.76;96270.54;106586;1274;22574;-77
2024/02/02 04:26:06;;;;;;;41.10;20.40;;;;;;;0.03;85.76;96271.41;106557;1276;25609;-77
2024/02/02 04:28:35;;;;;;;28.80;15.50;;;;;;;0.03;85.99;96267.98;106623;1276;22553;-76
2024/02/02 04:31:03;;;;;;;26.70;13.20;;;;;;;0.04;86.08;96261.09;106759;1276;25246;-77
2024/02/02 04:33:32;;;;;;;23.00;12.00;;;;;;;0.03;85.98;96262.27;106565;1276;22524;-76
2024/02/02 04:36:00;;;;;;;20.70;10.40;;;;;;;-0.02;85.46;96262.61;106603;1276;22645;-76
2024/02/02 04:38:28;;;;;;;31.30;15.20;;;;;;;-0.06;85.62;96267.00;106631;1274;22570;-76
2024/02/02 04:40:57;;;;;;;31.30;16.50;;;;;;;-0.09;85.95;96270.54;106608;1276;22518;-77
2024/02/02 04:43:25;;;;;;;24.00;14.00;;;;;;;-0.14;85.94;96272.59;106598;1276;25249;-76
2024/02/02 04:45:53;;;;;;;19.10;10.20;;;;;;;-0.16;85.88;96273.21;106608;1276;22589;-76
2024/02/02 04:48:22;;;;;;;17.70;8.70;;;;;;;-0.18;85.94;96266.77;106620;1254;22575;-77
2024/02/02 04:50:50;;;;;;;35.60;17.10;;;;;;;-0.19;86.46;96275.55;106631;1276;25419;-76
2024/02/02 04:53:18;;;;;;;43.40;22.60;;;;;;;-0.23;86.53;96283.53;106633;1254;22522;-77
2024/02/02 04:55:46;;;;;;;40.20;20.70;;;;;;;-0.25;86.68;96283.80;106577;1276;22636;-77
2024/02/02 04:58:14;;;;;;;60.90;27.80;;;;;;;-0.29;86.94;96285.74;106651;1276;23994;-77
2024/02/02 05:00:44;;;;;;;37.40;18.70;;;;;;;-0.32;87.30;96292.38;106640;1276;22801;-76
2024/02/02 05:03:12;;;;;;;34.30;16.10;;;;;;;-0.33;86.84;96293.38;106574;1276;25541;-76
2024/02/02 05:05:41;;;;;;;22.10;11.60;;;;;;;-0.33;86.78;96294.27;106635;1276;22590;-77
2024/02/02 05:08:09;;;;;;;43.10;22.40;;;;;;;-0.31;86.90;96300.02;106606;1276;22932;-77
2024/02/02 05:10:38;;;;;;;68.40;34.00;;;;;;;-0.32;87.41;96297.92;106628;1276;23106;-76
2024/02/02 05:13:06;;;;;;;55.40;27.20;;;;;;;-0.31;87.45;96294.48;106634;1276;22556;-76
2024/02/02 05:15:35;;;;;;;52.40;26.00;;;;;;;-0.32;87.07;96292.21;106602;1276;24392;-76
2024/02/02 05:18:04;;;;;;;21.40;11.60;;;;;;;-0.32;87.23;96293.09;106641;1276;22533;-76
2024/02/02 05:20:33;;;;;;;29.90;14.40;;;;;;;-0.31;87.13;96297.42;106725;1276;22548;-76
2024/02/02 05:23:01;;;;;;;23.40;14.10;;;;;;;-0.27;87.30;96298.80;106605;1276;22527;-76
2024/02/02 05:25:29;;;;;;;54.30;27.30;;;;;;;-0.20;87.67;96305.76;106637;1276;22521;-77
2024/02/02 05:27:57;;;;;;;62.30;27.20;;;;;;;-0.17;87.53;96308.80;106706;1276;23891;-77
2024/02/02 05:30:26;;;;;;;67.10;32.40;;;;;;;-0.16;87.05;96307.27;106677;1276;24218;-77
2024/02/02 05:32:54;;;;;;;54.90;25.70;;;;;;;-0.14;87.18;96308.56;106729;1276;25498;-77
2024/02/02 05:35:22;;;;;;;39.40;19.30;;;;;;;-0.10;87.01;96308.86;106859;1276;22585;-77
2024/02/02 05:37:51;;;;;;;21.50;11.10;;;;;;;-0.13;86.72;96305.67;106712;1276;25419;-77
2024/02/02 05:40:19;;;;;;;30.80;15.30;;;;;;;-0.12;86.81;96310.02;106571;1276;24245;-77
2024/02/02 05:42:47;;;;;;;24.30;13.20;;;;;;;-0.10;87.15;96311.96;106612;1276;25346;-77
2024/02/02 05:45:15;;;;;;;36.80;18.10;;;;;;;-0.05;87.23;96315.95;106823;1276;22828;-77
2024/02/02 05:47:43;;;;;;;26.50;14.80;;;;;;;-0.06;86.89;96317.14;106834;1276;22717;-77
2024/02/02 05:50:12;;;;;;;28.30;13.80;;;;;;;-0.09;86.55;96319.10;106594;1276;22527;-77
2024/02/02 05:52:40;;;;;;;23.20;12.80;;;;;;;-0.09;86.79;96316.34;106627;1276;24268;-77
2024/02/02 05:55:08;;;;;;;23.30;12.80;;;;;;;-0.02;87.18;96320.40;106527;1276;22590;-77
2024/02/02 05:57:37;;;;;;;16.90;9.10;;;;;;;-0.00;86.67;96321.32;106605;1276;22657;-77
2024/02/02 06:00:06;;;;;;;19.90;9.30;;;;;;;0.01;86.88;96324.12;106597;1276;22800;-76
2024/02/02 06:02:35;;;;;;;17.40;9.10;;;;;;;0.08;87.10;96322.46;106619;1276;23958;-77
2024/02/02 06:05:03;;;;;;;26.00;12.50;;;;;;;0.14;86.97;96322.80;106714;1276;25354;-76
2024/02/02 06:07:31;;;;;;;32.80;15.80;;;;;;;0.18;86.83;96328.49;106583;1276;22527;-76
2024/02/02 06:09:59;;;;;;;32.30;17.60;;;;;;;0.15;86.54;96329.23;106848;1276;22543;-76
2024/02/02 06:12:28;;;;;;;31.20;15.90;;;;;;;0.17;86.56;96329.34;106751;1276;22521;-76
2024/02/02 06:14:56;;;;;;;14.60;8.80;;;;;;;0.16;86.14;96328.23;106692;1276;24821;-75
2024/02/02 06:17:24;;;;;;;36.50;19.40;;;;;;;0.16;86.40;96331.52;106655;1276;25390;-77
2024/02/02 06:19:53;;;;;;;42.00;23.50;;;;;;;0.16;86.29;96335.52;106744;1276;22990;-75
2024/02/02 06:22:21;;;;;;;80.90;41.80;;;;;;;0.12;86.00;96335.89;106637;1276;25369;-75
2024/02/02 06:24:50;;;;;;;97.20;53.30;;;;;;;0.04;86.09;96337.36;106750;1276;22639;-76
2024/02/02 06:27:22;;;;;;;64.90;37.20;;;;;;;-0.00;86.04;96345.70;106673;1276;22917;-76
2024/02/02 06:29:51;;;;;;;53.00;28.10;;;;;;;-0.03;86.03;96341.27;107872;1276;22536;-76
2024/02/02 06:32:22;;;;;;;48.30;27.60;;;;;;;-0.03;85.98;96346.80;106746;1276;22525;-76
2024/02/02 06:34:55;;;;;;;80.60;41.80;;;;;;;-0.07;86.22;96357.23;106848;1276;22527;-76
2024/02/02 06:37:24;;;;;;;79.40;39.70;;;;;;;-0.06;86.33;96358.11;106718;1276;22567;-75
2024/02/02 06:39:54;;;;;;;97.20;48.90;;;;;;;-0.08;86.41;96359.11;106599;1276;22526;-76
2024/02/02 06:42:24;;;;;;;87.50;45.70;;;;;;;-0.08;86.45;96358.39;106652;1253;22547;-76
2024/02/02 06:44:54;;;;;;;73.90;37.70;;;;;;;-0.07;86.52;96360.16;106802;1276;22659;-77
2024/02/02 06:47:23;;;;;;;70.30;37.90;;;;;;;-0.07;86.49;96367.45;106880;1276;22521;-76
2024/02/02 06:49:51;;;;;;;43.30;23.40;;;;;;;-0.09;86.33;96366.66;107013;1276;22527;-76
2024/02/02 06:52:21;;;;;;;15.80;9.60;;;;;;;-0.09;86.40;96367.18;107194;1276;24294;-77
2024/02/02 06:54:50;;;;;;;22.10;9.80;;;;;;;-0.06;86.72;96371.45;107084;1276;133424;-77
2024/02/02 06:57:19;;;;;;;42.50;23.20;;;;;;;0.00;86.95;96374.42;106862;1276;22735;-78
2024/02/02 06:59:51;;;;;;;47.90;25.70;;;;;;;0.04;86.94;96379.76;106933;1276;25742;-77
2024/02/02 07:02:21;;;;;;;58.00;28.90;;;;;;;0.11;87.01;96380.35;106825;1276;24388;-78
2024/02/02 07:04:50;;;;;;;63.00;35.00;;;;;;;0.17;86.81;96382.43;106746;1276;25281;-78
2024/02/02 07:07:18;;;;;;;73.80;38.20;;;;;;;0.19;86.82;96384.59;107100;1276;22581;-78
2024/02/02 07:09:52;;;;;;;70.10;35.00;;;;;;;0.24;86.70;96384.04;107111;1276;22647;-77
2024/02/02 07:12:30;;;;;;;68.40;33.70;;;;;;;0.31;86.82;96386.55;107400;1276;24316;-79
2024/02/02 07:15:01;;;;;;;56.00;29.70;;;;;;;0.37;86.59;96388.49;107312;1276;24242;-78
2024/02/02 07:17:40;;;;;;;46.00;26.10;;;;;;;0.51;86.85;96390.15;107864;1276;22549;-77
2024/02/02 07:20:17;;;;;;;52.20;27.60;;;;;;;0.67;86.49;96386.84;107080;1276;22508;-77
2024/02/02 07:22:46;;;;;;;59.40;30.70;;;;;;;0.78;86.12;96387.71;107374;1270;22576;-78
2024/02/02 07:25:19;;;;;;;55.90;31.00;;;;;;;0.84;85.50;96390.34;107391;1275;25223;-78
2024/02/02 07:27:56;;;;;;;71.60;40.80;;;;;;;0.86;84.91;96394.73;107243;1261;22561;-76
2024/02/02 07:30:31;;;;;;;61.00;35.60;;;;;;;0.90;85.08;96399.88;107121;1274;24242;-78
2024/02/02 07:33:00;;;;;;;55.70;30.80;;;;;;;0.99;85.57;96399.83;106908;1274;22693;-77
2024/02/02 07:35:34;;;;;;;48.20;26.30;;;;;;;1.08;85.04;96401.48;106924;1275;25368;-76
2024/02/02 07:38:06;;;;;;;52.90;28.70;;;;;;;1.01;83.91;96405.95;107040;1275;25387;-77
2024/02/02 07:41:03;;;;;;;55.80;30.50;;;;;;;1.00;84.22;96407.48;107031;1275;22672;-77
2024/02/02 07:43:33;;;;;;;79.90;44.00;;;;;;;0.98;83.92;96406.56;107094;1275;22527;-78
2024/02/02 07:46:05;;;;;;;76.50;42.60;;;;;;;0.99;84.06;96410.38;107680;1275;22761;-79
2024/02/02 07:48:40;;;;;;;72.40;40.80;;;;;;;0.98;83.95;96411.92;106863;1275;22627;-79
2024/02/02 07:51:09;;;;;;;91.00;49.70;;;;;;;0.99;84.11;96414.53;107038;1253;22648;-79
2024/02/02 07:53:38;;;;;;;104.30;54.80;;;;;;;1.02;84.21;96417.05;106921;1263;26550;-78
2024/02/02 07:56:08;;;;;;;74.20;42.30;;;;;;;1.07;84.22;96418.96;107026;1275;23894;-78
2024/02/02 07:58:36;;;;;;;58.30;31.70;;;;;;;1.09;84.18;96416.60;106984;1275;22609;-78
2024/02/02 08:01:06;;;;;;;38.00;19.50;;;;;;;1.14;82.95;96420.20;107084;1275;25310;-78
2024/02/02 08:03:36;;;;;;;36.60;17.70;;;;;;;1.17;82.25;96423.59;106889;1275;24351;-79
2024/02/02 08:06:05;;;;;;;35.80;17.90;;;;;;;1.19;81.68;96423.32;106986;1275;24223;-79
2024/02/02 08:08:35;;;;;;;37.30;19.70;;;;;;;1.21;81.45;96423.36;107365;1275;26722;-78
2024/02/02 08:11:04;;;;;;;32.50;18.90;;;;;;;1.20;80.92;96422.64;107297;1275;22528;-77
2024/02/02 08:13:33;;;;;;;34.40;19.60;;;;;;;1.21;80.46;96423.02;106784;1263;24222;-77
2024/02/02 08:16:01;;;;;;;38.70;21.60;;;;;;;1.20;79.96;96425.42;106971;1275;22566;-79
2024/02/02 08:18:30;;;;;;;39.30;21.70;;;;;;;1.20;80.12;96427.83;107673;1271;24370;-78
2024/02/02 08:21:00;;;;;;;31.20;18.20;;;;;;;1.19;79.89;96431.26;107231;1275;22583;-78
2024/02/02 08:23:29;;;;;;;29.40;16.20;;;;;;;1.19;80.18;96431.27;107093;1275;22526;-78
2024/02/02 08:25:57;;;;;;;26.80;15.60;;;;;;;1.20;79.98;96433.38;107023;1275;22523;-77
2024/02/02 08:28:25;;;;;;;30.80;17.30;;;;;;;1.21;80.11;96433.62;106881;1275;24254;-79
2024/02/02 08:30:55;;;;;;;28.40;16.10;;;;;;;1.24;80.20;96429.16;106962;1275;22602;-77
2024/02/02 08:33:24;;;;;;;26.90;15.20;;;;;;;1.26;80.12;96434.28;106811;1268;24310;-76
2024/02/02 08:35:53;;;;;;;24.90;13.10;;;;;;;1.28;80.23;96431.39;107648;1275;25373;-77
2024/02/02 08:38:21;;;;;;;23.60;12.70;;;;;;;1.33;80.32;96433.45;107302;1275;24219;-79
2024/02/02 08:40:49;;;;;;;37.90;19.00;;;;;;;1.38;80.24;96432.70;107237;1275;22683;-79
2024/02/02 08:43:23;;;;;;;36.60;19.00;;;;;;;1.41;79.99;96433.68;107091;1275;22534;-79
2024/02/02 08:45:58;;;;;;;44.60;20.60;;;;;;;1.44;80.11;96436.53;107518;1275;22567;-79
2024/02/02 08:48:47;;;;;;;39.20;20.00;;;;;;;1.48;80.25;96436.65;106977;1275;25239;-76
2024/02/02 08:51:21;;;;;;;37.60;19.90;;;;;;;1.52;80.04;96431.23;107127;1275;22529;-78
2024/02/02 08:54:06;;;;;;;37.10;18.30;;;;;;;1.56;80.05;96436.38;107727;1267;22546;-78
2024/02/02 08:56:34;;;;;;;27.00;13.20;;;;;;;1.60;80.07;96435.30;107098;1273;22521;-78
2024/02/02 08:59:26;;;;;;;34.20;19.20;;;;;;;1.65;79.89;96442.02;107252;1273;22528;-78
2024/02/02 09:01:54;;;;;;;34.70;18.50;;;;;;;1.69;79.85;96441.98;107320;1274;22532;-77
2024/02/02 09:04:48;;;;;;;32.60;16.60;;;;;;;1.76;79.83;96445.62;106897;1260;25349;-77
2024/02/02 09:07:16;;;;;;;44.20;22.40;;;;;;;1.82;80.10;96445.64;106977;1275;22640;-76
2024/02/02 09:09:45;;;;;;;44.60;21.80;;;;;;;1.89;80.04;96447.89;107138;1273;22508;-78
2024/02/02 09:12:14;;;;;;;49.00;25.20;;;;;;;1.95;79.78;96452.94;106681;1275;22498;-76
2024/02/02 09:14:44;;;;;;;34.50;17.90;;;;;;;2.01;79.26;96452.92;106878;1275;22531;-75
2024/02/02 09:17:13;;;;;;;32.50;17.80;;;;;;;2.07;78.62;96447.56;106740;1275;22560;-77
2024/02/02 09:19:46;;;;;;;30.20;15.30;;;;;;;2.16;78.17;96451.63;107003;1253;23737;-77
2024/02/02 09:22:16;;;;;;;29.80;16.00;;;;;;;2.24;77.88;96450.45;106971;1275;22473;-76
2024/02/02 09:24:46;;;;;;;32.00;17.00;;;;;;;2.31;77.65;96445.27;106865;1275;24249;-76
2024/02/02 09:27:18;;;;;;;35.80;17.90;;;;;;;2.42;78.16;96450.92;107068;1275;24325;-77
2024/02/02 09:29:49;;;;;;;30.10;16.50;;;;;;;2.56;77.87;96442.08;106980;1275;22605;-77
2024/02/02 09:32:17;;;;;;;28.10;16.30;;;;;;;2.66;76.31;96434.19;106923;1274;22650;-77
2024/02/02 09:34:46;;;;;;;35.60;22.20;;;;;;;2.77;76.62;96435.15;106756;1275;24241;-78
2024/02/02 09:37:25;;;;;;;25.40;12.80;;;;;;;2.88;76.26;96431.44;107510;1275;22534;-78
2024/02/02 09:39:55;;;;;;;31.50;15.70;;;;;;;2.97;75.18;96430.95;107067;1275;22657;-78
2024/02/02 09:43:06;;;;;;;29.50;17.00;;;;;;;3.07;74.95;96431.02;107468;1275;22617;-75
2024/02/02 09:46:14;;;;;;;25.00;14.40;;;;;;;3.14;74.15;96425.81;106909;1275;24420;-78
2024/02/02 09:48:45;;;;;;;26.50;13.10;;;;;;;3.21;73.71;96430.31;107122;1275;22519;-78
2024/02/02 09:51:22;;;;;;;24.30;13.80;;;;;;;3.24;73.66;96427.79;107005;1275;25291;-77
2024/02/02 09:54:23;;;;;;;28.40;15.10;;;;;;;3.23;72.55;96420.61;107427;1275;22544;-77
2024/02/02 09:57:14;;;;;;;22.20;12.80;;;;;;;3.21;72.08;96425.45;106935;1253;25607;-78
2024/02/02 09:59:50;;;;;;;17.20;8.60;;;;;;;3.23;72.45;96423.41;107100;1275;22534;-79
2024/02/02 10:02:47;;;;;;;12.60;6.30;;;;;;;3.21;70.43;96421.95;106891;1260;24341;-78
2024/02/02 10:05:27;;;;;;;13.80;6.70;;;;;;;3.22;69.92;96422.34;106889;1275;24375;-76
2024/02/02 10:08:12;;;;;;;11.20;6.50;;;;;;;3.19;69.53;96424.19;106907;1275;22531;-77
2024/02/02 10:11:25;;;;;;;11.10;6.80;;;;;;;3.14;68.97;96423.89;106920;1275;25369;-77
2024/02/02 10:14:30;;;;;;;11.90;6.50;;;;;;;3.05;68.79;96421.94;106688;1275;22593;-77
2024/02/02 10:17:12;;;;;;;12.60;6.50;;;;;;;3.01;69.26;96419.23;106874;1275;24276;-77
2024/02/02 10:20:11;;;;;;;11.80;6.60;;;;;;;3.00;69.46;96416.96;106880;1275;22642;-77
2024/02/02 10:23:04;;;;;;;11.20;6.00;;;;;;;2.97;69.64;96420.54;106826;1275;24478;-77
2024/02/02 10:25:56;;;;;;;15.00;7.60;;;;;;;2.94;69.57;96417.50;106723;1275;25462;-77
2024/02/02 10:28:40;;;;;;;11.90;7.10;;;;;;;2.93;70.28;96423.73;106834;1275;22786;-76
2024/02/02 10:31:20;;;;;;;16.00;7.40;;;;;;;2.96;70.32;96418.27;106655;1275;23079;-76
2024/02/02 10:34:16;;;;;;;12.30;6.30;;;;;;;3.05;70.25;96417.08;106749;1275;25385;-76
2024/02/02 10:36:44;;;;;;;11.00;6.90;;;;;;;3.11;69.99;96421.39;106635;1275;22992;-76
2024/02/02 10:39:45;;;;;;;15.50;7.80;;;;;;;3.21;70.18;96422.48;106731;1275;25362;-76
2024/02/02 10:42:17;;;;;;;10.90;5.70;;;;;;;3.35;70.06;96421.59;106729;1275;25252;-76
2024/02/02 10:45:11;;;;;;;16.20;8.30;;;;;;;3.40;69.65;96416.83;106714;1275;22542;-76
2024/02/02 10:48:01;;;;;;;16.40;8.40;;;;;;;3.46;69.61;96418.89;106685;1275;23310;-76
2024/02/02 10:50:43;;;;;;;14.70;6.90;;;;;;;3.50;69.33;96420.36;106665;1275;25598;-76
2024/02/02 10:53:20;;;;;;;12.40;6.60;;;;;;;3.52;68.58;96423.02;106806;1275;22524;-76
2024/02/02 10:56:07;;;;;;;13.10;6.90;;;;;;;3.51;68.25;96425.25;106844;1275;25501;-75
2024/02/02 10:58:55;;;;;;;10.40;5.80;;;;;;;3.50;68.33;96429.58;106773;1275;22530;-74
2024/02/02 11:01:55;;;;;;;10.30;5.40;;;;;;;3.52;68.20;96428.05;106847;1275;22609;-75
2024/02/02 11:04:39;;;;;;;12.50;5.80;;;;;;;3.51;66.86;96426.46;106753;1275;22524;-75
2024/02/02 11:07:22;;;;;;;10.50;6.00;;;;;;;3.50;67.48;96428.36;106641;1275;25407;-75
2024/02/02 11:10:01;;;;;;;11.60;6.40;;;;;;;3.47;67.68;96425.00;106626;1275;23896;-75
2024/02/02 11:12:41;;;;;;;10.70;6.20;;;;;;;3.43;67.49;96423.15;106610;1275;24284;-75
2024/02/02 11:15:30;;;;;;;12.70;7.30;;;;;;;3.38;67.56;96417.65;106772;1275;24207;-75
2024/02/02 11:18:24;;;;;;;16.40;7.90;;;;;;;3.38;68.28;96415.92;106617;1275;24222;-75
2024/02/02 11:20:53;;;;;;;13.40;6.50;;;;;;;3.41;67.57;96409.02;106639;1275;24264;-75
2024/02/02 11:23:51;;;;;;;20.70;10.70;;;;;;;3.39;67.21;96408.81;106665;1275;24250;-76
2024/02/02 11:26:31;;;;;;;16.30;7.30;;;;;;;3.37;67.28;96409.65;106743;1275;23882;-75
2024/02/02 11:29:24;;;;;;;15.40;7.80;;;;;;;3.33;67.71;96411.99;106961;1275;22535;-75
2024/02/02 11:32:24;;;;;;;15.80;8.20;;;;;;;3.27;68.26;96412.55;107052;1275;24281;-76
2024/02/02 11:35:00;;;;;;;13.90;8.90;;;;;;;3.21;68.09;96409.79;106498;1275;22650;-76
2024/02/02 11:37:52;;;;;;;16.50;9.90;;;;;;;3.10;67.86;96415.80;106834;1275;22530;-76
2024/02/02 11:40:24;;;;;;;15.60;9.70;;;;;;;2.96;68.17;96419.98;106965;1275;25487;-76